Time;durP1;ratioP1;P1;durP2;ratioP2;P2;SDS_P1;SDS_P2;PMS_P1;PMS_P2;Temp;Humidity;BMP_temperature;BMP_pressure;BME280_temperature;BME280_humidity;BME280_pressure;Samples;Min_cycle;Max_cycle;Signal;HPM_P1;HPM_P2
2022/08/11 00:01:45;;;;;;;5.00;3.40;;;22.10;52.50;;;;;;5054069;28;21018;-56
2022/08/11 00:04:14;;;;;;;5.23;3.50;;;22.00;52.60;;;;;;5054297;28;20429;-56
2022/08/11 00:06:45;;;;;;;3.73;3.27;;;22.10;52.70;;;;;;5053800;28;20812;-56
2022/08/11 00:09:17;;;;;;;4.07;3.30;;;22.00;53.10;;;;;;5053746;28;20465;-56
2022/08/11 00:11:46;;;;;;;4.00;3.57;;;21.90;53.10;;;;;;5053923;28;20461;-56
2022/08/11 00:14:17;;;;;;;4.47;3.07;;;21.80;53.10;;;;;;5054017;28;20449;-56
2022/08/11 00:16:53;;;;;;;3.70;3.10;;;22.00;53.30;;;;;;5054034;28;20429;-56
2022/08/11 00:19:23;;;;;;;3.70;3.40;;;21.80;53.10;;;;;;5053937;28;20425;-56
2022/08/11 00:21:53;;;;;;;3.40;2.83;;;21.70;53.40;;;;;;5053986;28;20523;-56
2022/08/11 00:24:22;;;;;;;4.17;3.70;;;21.80;53.70;;;;;;5053829;28;20449;-56
2022/08/11 00:26:50;;;;;;;4.00;3.30;;;21.90;53.50;;;;;;5053487;28;20544;-56
2022/08/11 00:29:21;;;;;;;4.67;3.00;;;22.00;53.50;;;;;;5053532;28;20997;-56
2022/08/11 00:31:51;;;;;;;9.27;3.87;;;22.00;53.50;;;;;;5053883;28;20501;-56
2022/08/11 00:34:21;;;;;;;6.20;3.57;;;21.90;53.20;;;;;;5053678;28;20445;-56
2022/08/11 00:36:53;;;;;;;4.93;3.50;;;21.60;53.70;;;;;;5053287;28;20506;-56
2022/08/11 00:39:22;;;;;;;3.70;3.37;;;21.60;53.80;;;;;;5053708;28;20425;-56
2022/08/11 00:42:07;;;;;;;4.83;3.20;;;21.50;54.00;;;;;;5053607;28;20477;-56
2022/08/11 00:44:44;;;;;;;3.73;3.30;;;21.50;54.30;;;;;;5053364;28;20436;-56
2022/08/11 00:47:21;;;;;;;3.60;3.30;;;21.40;54.10;;;;;;5053283;28;20876;-56
2022/08/11 00:50:11;;;;;;;4.80;3.33;;;21.40;54.30;;;;;;5053348;28;20473;-56
2022/08/11 00:53:12;;;;;;;3.43;3.13;;;21.30;54.30;;;;;;5053188;28;20437;-56
2022/08/11 00:56:15;;;;;;;3.87;3.33;;;21.40;54.30;;;;;;5053315;28;20838;-56
2022/08/11 00:59:22;;;;;;;4.10;2.97;;;21.30;54.60;;;;;;5042732;28;20456;-55
2022/08/11 01:01:59;;;;;;;6.27;3.67;;;21.40;54.50;;;;;;5053308;28;20465;-56
2022/08/11 01:05:04;;;;;;;3.47;3.17;;;21.40;54.40;;;;;;5053127;28;20497;-56
2022/08/11 01:07:57;;;;;;;3.80;3.50;;;21.40;54.60;;;;;;5052959;28;20929;-56
2022/08/11 01:10:50;;;;;;;3.60;3.30;;;21.30;54.80;;;;;;5053435;28;20476;-56
2022/08/11 01:13:46;;;;;;;4.53;3.60;;;21.40;54.80;;;;;;5053403;28;20426;-57
2022/08/11 01:16:39;;;;;;;4.60;3.87;;;21.30;54.80;;;;;;5052897;28;20425;-56
2022/08/11 01:19:39;;;;;;;8.70;3.57;;;21.20;55.10;;;;;;5053143;28;20422;-56
2022/08/11 01:22:57;;;;;;;3.50;3.20;;;21.20;55.20;;;;;;5050275;28;20796;-56
2022/08/11 01:25:55;;;;;;;7.33;3.73;;;21.20;55.40;;;;;;5053001;28;20452;-56
2022/08/11 01:28:53;;;;;;;4.30;3.63;;;21.30;55.20;;;;;;5052800;28;20958;-56
2022/08/11 01:32:02;;;;;;;5.43;3.50;;;21.30;55.60;;;;;;5053109;28;20523;-57
2022/08/11 01:35:22;;;;;;;3.23;3.03;;;21.20;55.60;;;;;;5053031;28;20834;-56
2022/08/11 01:38:43;;;;;;;3.43;3.13;;;21.20;55.80;;;;;;5052756;28;20457;-56
2022/08/11 01:44:38;;;;;;;3.60;3.30;;;21.00;56.00;;;;;;4990717;28;20413;-56
2022/08/11 01:50:16;;;;;;;4.13;3.53;;;20.90;56.30;;;;;;5051508;28;20627;-56
2022/08/11 01:52:55;;;;;;;3.70;3.30;;;21.10;56.00;;;;;;5052998;28;20444;-56
2022/08/11 01:55:29;;;;;;;4.30;3.27;;;21.00;56.40;;;;;;5052932;28;20440;-56
2022/08/11 01:58:06;;;;;;;3.60;3.30;;;20.90;56.20;;;;;;5052660;28;20902;-56
2022/08/11 02:00:44;;;;;;;3.73;3.43;;;20.90;56.30;;;;;;5052399;28;20496;-56
2022/08/11 02:03:20;;;;;;;3.77;3.40;;;20.80;56.40;;;;;;5052765;28;20437;-56
2022/08/11 02:06:00;;;;;;;3.70;3.40;;;20.90;56.50;;;;;;5052304;28;20426;-56
2022/08/11 02:08:47;;;;;;;3.83;3.43;;;20.90;56.50;;;;;;5052301;28;20508;-56
2022/08/11 02:11:33;;;;;;;4.00;3.70;;;20.90;56.50;;;;;;5056178;28;20488;-56
2022/08/11 02:14:13;;;;;;;4.00;3.60;;;20.90;56.30;;;;;;5056124;28;20817;-56
2022/08/11 02:16:53;;;;;;;5.50;3.43;;;20.70;57.00;;;;;;5056065;28;20422;-56
2022/08/11 02:25:07;;;;;;;3.90;3.53;;;21.10;55.90;;;;;;5055963;28;20888;-56
2022/08/11 02:27:41;;;;;;;7.73;3.80;;;21.40;55.40;;;;;;5056506;28;20440;-56
2022/08/11 02:30:12;;;;;;;7.43;3.93;;;21.40;55.10;;;;;;5056258;28;20493;-56
2022/08/11 02:35:46;;;;;;;6.77;3.60;;;21.30;55.40;;;;;;5055935;28;20408;-56
2022/08/11 02:38:25;;;;;;;5.93;3.67;;;21.10;55.60;;;;;;5055931;28;20433;-56
2022/08/11 02:41:02;;;;;;;4.30;3.60;;;20.80;56.10;;;;;;5055912;28;20473;-56
2022/08/11 02:43:52;;;;;;;3.80;3.40;;;20.80;56.30;;;;;;5055917;28;20441;-56
2022/08/11 02:46:24;;;;;;;3.70;3.40;;;20.70;56.40;;;;;;5055800;28;20773;-56
2022/08/11 02:51:59;;;;;;;5.63;3.70;;;20.50;56.60;;;;;;5055436;28;20585;-56
2022/08/11 02:54:37;;;;;;;5.33;3.90;;;20.50;56.70;;;;;;5055622;28;20783;-56
2022/08/11 02:57:13;;;;;;;3.57;3.27;;;20.50;56.90;;;;;;5055451;28;20406;-56
2022/08/11 02:59:52;;;;;;;4.97;3.30;;;20.40;57.30;;;;;;5055508;28;20492;-56
2022/08/11 03:02:33;;;;;;;4.67;4.00;;;20.20;57.50;;;;;;5055317;28;20448;-56
2022/08/11 03:05:07;;;;;;;4.17;3.77;;;20.10;57.70;;;;;;5055588;28;20433;-56
2022/08/11 03:07:48;;;;;;;4.63;3.63;;;20.30;57.60;;;;;;5055627;28;20433;-56
2022/08/11 03:10:22;;;;;;;3.60;3.30;;;20.30;57.60;;;;;;5055246;28;20985;-56
2022/08/11 03:18:42;;;;;;;4.30;3.90;;;20.10;58.50;;;;;;5055009;28;20409;-56
2022/08/11 03:21:17;;;;;;;4.43;3.63;;;20.00;58.90;;;;;;5053701;28;20500;-56
2022/08/11 03:23:54;;;;;;;4.00;3.60;;;19.90;58.90;;;;;;5054902;28;20441;-56
2022/08/11 03:26:28;;;;;;;5.77;4.03;;;19.60;59.30;;;;;;5054747;28;20941;-57
2022/08/11 03:29:05;;;;;;;7.23;3.87;;;19.70;59.60;;;;;;5055043;28;20502;-56
2022/08/11 03:31:37;;;;;;;9.83;3.93;;;19.80;59.40;;;;;;5055015;28;20472;-56
2022/08/11 03:34:06;;;;;;;4.60;4.20;;;19.60;59.70;;;;;;5054955;28;20433;-56
2022/08/11 03:36:56;;;;;;;4.00;3.70;;;19.40;60.40;;;;;;5054817;28;20548;-57
2022/08/11 03:39:33;;;;;;;4.43;4.03;;;19.40;60.80;;;;;;5054712;28;20793;-56
2022/08/11 03:42:13;;;;;;;6.40;4.00;;;19.40;61.80;;;;;;5054373;28;20559;-57
2022/08/11 03:44:55;;;;;;;5.80;4.50;;;19.40;61.10;;;;;;5054442;28;20442;-56
2022/08/11 03:47:44;;;;;;;3.83;3.27;;;19.40;61.20;;;;;;5054000;28;20488;-56
2022/08/11 03:50:27;;;;;;;4.77;4.37;;;19.70;61.30;;;;;;5054510;28;20538;-56
2022/08/11 03:53:12;;;;;;;10.20;4.63;;;19.50;60.80;;;;;;5054211;28;20945;-56
2022/08/11 03:56:11;;;;;;;4.40;4.00;;;19.30;61.60;;;;;;5054494;28;20445;-56
2022/08/11 03:59:16;;;;;;;5.30;4.53;;;19.60;62.00;;;;;;5054405;28;20426;-56
2022/08/11 04:02:15;;;;;;;4.90;4.40;;;19.60;61.80;;;;;;5054097;28;20522;-56
2022/08/11 04:05:24;;;;;;;6.57;4.13;;;19.70;61.90;;;;;;5054456;28;20483;-56
2022/08/11 04:08:27;;;;;;;5.10;3.90;;;19.40;62.10;;;;;;5054314;28;20429;-57
2022/08/11 04:11:12;;;;;;;4.30;3.77;;;19.20;62.90;;;;;;5054263;28;20488;-56
2022/08/11 04:17:29;;;;;;;7.73;5.17;;;19.10;63.80;;;;;;5053842;28;20443;-56
2022/08/11 04:20:29;;;;;;;6.37;4.47;;;19.10;64.50;;;;;;5053518;28;20452;-56
2022/08/11 04:23:19;;;;;;;7.03;4.60;;;19.00;64.50;;;;;;5053998;28;20436;-56
2022/08/11 04:26:14;;;;;;;4.60;4.20;;;19.10;64.40;;;;;;5053734;28;20480;-56
2022/08/11 04:28:58;;;;;;;6.73;4.03;;;;;;;;;;5053781;28;20472;-56
2022/08/11 04:31:40;;;;;;;5.90;4.57;;;18.90;64.60;;;;;;5053828;28;20472;-56
2022/08/11 04:34:43;;;;;;;8.80;4.57;;;18.80;65.90;;;;;;5053141;28;20442;-57
2022/08/11 04:37:43;;;;;;;5.30;4.43;;;19.00;65.80;;;;;;5053503;28;20461;-56
2022/08/11 04:40:43;;;;;;;4.30;3.90;;;18.90;66.20;;;;;;5042722;28;20480;-56
2022/08/11 04:43:42;;;;;;;7.13;4.30;;;18.80;66.50;;;;;;5053521;28;20955;-56
2022/08/11 04:46:48;;;;;;;7.87;4.70;;;18.90;66.70;;;;;;5043131;28;20445;-56
2022/08/11 05:03:03;;;;;;;5.30;3.93;;;19.10;68.10;;;;;;4961204;28;20453;-56
2022/08/11 05:05:59;;;;;;;5.10;4.37;;;19.00;69.10;;;;;;5011752;28;20449;-56
2022/08/11 05:08:53;;;;;;;4.40;4.00;;;19.00;69.40;;;;;;5052412;28;20449;-56
2022/08/11 05:11:54;;;;;;;6.03;5.53;;;19.10;70.00;;;;;;5053528;28;20808;-56
2022/08/11 05:37:10;;;;;;;7.10;4.17;;;19.90;68.20;;;;;;5052775;28;20443;-56
2022/08/11 05:56:43;;;;;;;4.50;4.03;;;20.80;64.20;;;;;;5056591;28;20463;-56
2022/08/11 05:59:15;;;;;;;6.17;4.53;;;20.70;63.10;;;;;;5056384;28;20527;-56
2022/08/11 06:01:43;;;;;;;5.30;4.83;;;20.90;63.20;;;;;;5056018;28;20461;-57
2022/08/11 06:04:17;;;;;;;6.10;4.53;;;21.00;61.90;;;;;;5056118;28;20449;-56
2022/08/11 06:06:51;;;;;;;5.63;4.63;;;21.20;62.20;;;;;;5055953;28;20429;-56
2022/08/11 06:09:33;;;;;;;5.80;4.10;;;21.20;62.10;;;;;;5056335;28;20465;-56
2022/08/11 06:12:04;;;;;;;5.27;4.40;;;21.30;61.20;;;;;;5056193;28;20465;-56
2022/08/11 06:14:33;;;;;;;7.50;4.03;;;21.30;60.90;;;;;;5056255;28;20465;-56
2022/08/11 06:17:05;;;;;;;4.57;3.90;;;21.50;60.90;;;;;;5056141;28;20449;-56
2022/08/11 06:19:40;;;;;;;7.43;4.47;;;21.60;60.40;;;;;;5056132;28;20457;-56
2022/08/11 06:22:11;;;;;;;5.10;3.80;;;21.60;60.40;;;;;;5056284;28;20429;-56
2022/08/11 06:24:50;;;;;;;5.33;4.27;;;21.60;60.30;;;;;;5055556;28;20483;-56
2022/08/11 06:27:21;;;;;;;4.93;4.03;;;21.70;59.90;;;;;;5055595;28;20436;-56
2022/08/11 06:29:51;;;;;;;4.60;3.93;;;21.90;59.80;;;;;;5055880;28;20469;-56
2022/08/11 06:32:19;;;;;;;4.77;4.37;;;21.80;59.90;;;;;;5055990;28;20445;-56
2022/08/11 06:34:59;;;;;;;7.50;4.20;;;21.90;59.60;;;;;;5055950;28;20922;-56
2022/08/11 06:37:39;;;;;;;4.63;3.83;;;22.00;59.50;;;;;;5055680;28;20505;-56
2022/08/11 06:40:10;;;;;;;6.10;4.60;;;22.00;59.50;;;;;;5055370;28;20529;-56
2022/08/11 06:42:48;;;;;;;5.13;4.00;;;22.20;59.10;;;;;;5055324;28;20440;-56
2022/08/11 06:45:25;;;;;;;4.30;3.90;;;22.30;59.20;;;;;;5055298;28;20410;-56
2022/08/11 06:47:54;;;;;;;4.37;3.97;;;22.30;59.00;;;;;;5055196;28;20477;-56
2022/08/11 06:53:11;;;;;;;4.77;4.27;;;22.20;59.20;;;;;;5055373;28;20540;-56
2022/08/11 07:01:24;;;;;;;5.53;4.40;;;22.40;59.00;;;;;;5054978;28;20817;-56
2022/08/11 07:04:00;;;;;;;4.50;4.10;;;22.50;59.00;;;;;;5055128;28;20463;-56
2022/08/11 07:06:39;;;;;;;4.03;3.70;;;22.40;58.80;;;;;;5054608;28;20520;-55
2022/08/11 07:15:44;;;;;;;5.87;4.30;;;22.50;58.60;;;;;;5054857;28;20448;-57
2022/08/11 07:29:37;;;;;;;4.80;4.00;;;23.00;58.80;;;;;;5054284;28;20515;-56
2022/08/11 07:32:14;;;;;;;6.93;4.10;;;23.00;58.90;;;;;;5053956;28;20452;-55
2022/08/11 07:34:48;;;;;;;5.30;4.63;;;23.10;58.50;;;;;;5054342;28;20433;-55
2022/08/11 07:37:18;;;;;;;5.00;3.87;;;23.20;58.30;;;;;;5054166;28;20434;-56
2022/08/11 07:39:48;;;;;;;4.80;4.17;;;23.20;58.40;;;;;;5054137;28;20780;-56
2022/08/11 07:42:17;;;;;;;5.47;3.83;;;23.40;58.00;;;;;;5054333;28;20495;-56
2022/08/11 07:53:06;;;;;;;4.70;3.43;;;23.50;58.20;;;;;;5054275;28;20412;-56
2022/08/11 07:55:34;;;;;;;4.70;4.30;;;23.70;57.80;;;;;;5054056;28;20865;-56
2022/08/11 08:20:13;;;;;;;4.07;3.67;;;28.00;52.20;;;;;;5053684;28;20480;-57
2022/08/11 08:22:40;;;;;;;4.37;3.97;;;28.50;51.30;;;;;;5053686;28;20917;-57
2022/08/11 08:25:09;;;;;;;4.17;3.50;;;28.80;51.40;;;;;;5053547;28;20536;-57
2022/08/11 08:27:37;;;;;;;3.97;3.67;;;28.90;50.90;;;;;;5053651;28;20528;-57
2022/08/11 08:32:56;;;;;;;5.83;3.90;;;29.10;49.90;;;;;;5053455;28;20408;-56
2022/08/11 08:35:25;;;;;;;3.50;3.27;;;29.60;49.50;;;;;;5053276;28;20434;-57
2022/08/11 08:37:52;;;;;;;3.13;2.93;;;29.80;49.10;;;;;;5053198;28;20460;-57
2022/08/11 08:40:20;;;;;;;4.23;3.10;;;29.70;49.10;;;;;;5053137;28;21038;-57
2022/08/11 08:42:53;;;;;;;3.50;3.17;;;29.90;48.90;;;;;;5053105;28;20492;-57
2022/08/11 08:45:22;;;;;;;6.90;3.50;;;29.90;48.80;;;;;;5053327;28;20425;-56
2022/08/11 08:47:57;;;;;;;3.33;3.03;;;29.70;48.60;;;;;;5052627;28;21007;-56
2022/08/11 08:53:14;;;;;;;3.90;3.50;;;30.30;48.30;;;;;;5051329;28;20440;-56
2022/08/11 08:55:43;;;;;;;3.40;3.10;;;30.40;48.10;;;;;;5052196;28;20826;-56
2022/08/11 08:58:11;;;;;;;3.20;2.90;;;30.20;48.00;;;;;;5052496;28;20861;-57
2022/08/11 09:00:44;;;;;;;4.63;3.53;;;30.70;47.80;;;;;;5052119;28;20872;-56
2022/08/11 09:03:11;;;;;;;3.67;3.37;;;30.90;47.30;;;;;;5052319;28;20485;-56
2022/08/11 09:05:41;;;;;;;3.23;3.03;;;30.80;46.80;;;;;;5052219;28;20448;-56
2022/08/11 09:08:09;;;;;;;6.40;3.07;;;30.70;47.00;;;;;;5051958;28;20953;-56
2022/08/11 09:10:37;;;;;;;3.27;3.07;;;30.70;47.10;;;;;;5052122;28;20499;-57
2022/08/11 09:13:07;;;;;;;3.50;3.07;;;30.50;46.30;;;;;;5051836;28;21001;-56
2022/08/11 09:15:36;;;;;;;4.00;3.10;;;30.60;46.00;;;;;;5051715;28;20545;-56
2022/08/11 09:18:08;;;;;;;3.90;2.90;;;31.00;46.20;;;;;;5052299;28;20449;-56
2022/08/11 09:20:38;;;;;;;4.37;3.57;;;31.30;45.80;;;;;;5050635;28;20461;-56
2022/08/11 09:28:52;;;;;;;6.90;3.10;;;31.60;45.00;;;;;;4990454;28;20460;-56
2022/08/11 09:31:21;;;;;;;3.60;3.30;;;32.00;44.60;;;;;;5036728;28;20572;-56
2022/08/11 09:33:53;;;;;;;3.77;3.07;;;32.00;44.30;;;;;;5052144;28;20456;-56
2022/08/11 09:41:53;;;;;;;4.07;3.13;;;32.10;44.70;;;;;;5051771;28;20560;-56
2022/08/11 09:47:07;;;;;;;3.43;3.13;;;31.20;45.10;;;;;;4935971;28;3316231;-56
2022/08/11 09:49:34;;;;;;;3.27;3.03;;;31.10;44.80;;;;;;5052336;28;20213;-56
2022/08/11 09:52:08;;;;;;;3.20;2.73;;;31.50;44.90;;;;;;5052278;28;20530;-57
2022/08/11 09:54:37;;;;;;;8.53;2.87;;;31.40;44.00;;;;;;5052488;28;20449;-57
2022/08/11 09:59:52;;;;;;;3.43;2.80;;;31.80;43.70;;;;;;5052370;28;20712;-57
2022/08/11 10:02:26;;;;;;;3.73;3.43;;;32.50;43.60;;;;;;5052582;28;20783;-56
2022/08/11 10:07:00;;;;;;;3.60;3.00;;;31.90;43.00;;;;;;5052544;28;20509;-56
2022/08/11 10:07:49;;;;;;;3.63;2.60;;;32.00;43.20;;;;;;5052300;28;20424;-57
2022/08/11 10:10:21;;;;;;;6.07;2.87;;;32.00;43.30;;;;;;5052438;28;20492;-56
2022/08/11 10:12:52;;;;;;;4.83;3.07;;;31.90;43.40;;;;;;5052471;28;20452;-56
2022/08/11 10:15:36;;;;;;;3.10;2.80;;;32.10;43.40;;;;;;5052435;28;20517;-56
2022/08/11 10:20:54;;;;;;;2.70;2.50;;;32.50;42.20;;;;;;5052188;28;20527;-57
2022/08/11 10:28:54;;;;;;;3.23;2.93;;;32.60;42.70;;;;;;5052293;28;20409;-56
2022/08/11 10:34:08;;;;;;;4.53;3.30;;;32.70;42.50;;;;;;5055892;28;20412;-56
2022/08/11 10:36:43;;;;;;;3.20;2.70;;;33.00;41.80;;;;;;5055838;28;20499;-56
2022/08/11 10:39:15;;;;;;;3.10;2.90;;;32.70;41.90;;;;;;5055585;28;20430;-56
2022/08/11 10:44:32;;;;;;;2.63;2.43;;;33.20;41.60;;;;;;5055666;28;20543;-57
2022/08/11 10:51:11;;;;;;;3.13;2.83;;;33.50;41.80;;;;;;5055450;28;20415;-56
2022/08/11 11:00:55;;;;;;;3.77;2.67;;;33.50;40.60;;;;;;5055250;28;20583;-56
2022/08/11 11:03:25;;;;;;;2.70;2.50;;;33.30;40.80;;;;;;5055190;28;20508;-57
2022/08/11 11:05:54;;;;;;;3.50;3.20;;;33.10;41.40;;;;;;5055178;28;20815;-56
2022/08/11 11:11:15;;;;;;;4.77;2.97;;;33.00;41.30;;;;;;5055540;28;20487;-56
2022/08/11 11:19:29;;;;;;;3.47;3.13;;;33.40;41.10;;;;;;5007668;28;20897;-56
2022/08/11 11:22:36;;;;;;;3.03;2.80;;;33.80;40.50;;;;;;5054859;28;20866;-57
2022/08/11 11:24:59;;;;;;;3.47;3.17;;;34.00;39.90;;;;;;5054471;28;20444;-57
2022/08/11 11:27:32;;;;;;;3.83;2.43;;;33.90;39.90;;;;;;5054883;28;20435;-57
2022/08/11 11:30:07;;;;;;;2.60;2.40;;;33.40;39.70;;;;;;5054670;28;20476;-57
2022/08/11 11:32:44;;;;;;;3.60;2.83;;;33.50;40.00;;;;;;5054950;28;20518;-56
2022/08/11 11:35:22;;;;;;;3.20;2.90;;;33.20;40.20;;;;;;5054399;28;20969;-56
2022/08/11 11:37:51;;;;;;;4.17;2.80;;;33.10;40.10;;;;;;5054350;28;20433;-56
2022/08/11 11:40:21;;;;;;;3.33;2.90;;;33.50;40.20;;;;;;5054684;28;20496;-56
2022/08/11 11:42:50;;;;;;;2.93;2.70;;;33.20;39.20;;;;;;5053357;28;20449;-57
2022/08/11 11:45:20;;;;;;;2.67;2.47;;;33.10;40.10;;;;;;5054420;28;20460;-56
2022/08/11 11:47:51;;;;;;;3.03;2.83;;;32.80;40.10;;;;;;5054086;28;20557;-57
2022/08/11 11:50:24;;;;;;;3.03;2.70;;;33.00;39.70;;;;;;5054338;28;20530;-56
2022/08/11 11:52:54;;;;;;;3.23;2.90;;;33.30;39.80;;;;;;5054327;28;20426;-56
2022/08/11 11:55:24;;;;;;;4.20;2.60;;;32.50;40.00;;;;;;5054176;28;20468;-56
2022/08/11 12:03:25;;;;;;;3.70;2.90;;;33.00;40.10;;;;;;5053971;28;20563;-56
2022/08/11 12:05:53;;;;;;;4.13;2.70;;;32.80;39.80;;;;;;5054107;28;20955;-57
2022/08/11 12:08:22;;;;;;;4.20;3.10;;;33.40;39.60;;;;;;5053767;28;20449;-57
2022/08/11 12:13:39;;;;;;;2.73;2.53;;;33.10;39.70;;;;;;5054115;28;20524;-56
2022/08/11 12:13:41;;;;;;;4.50;2.70;;;33.40;39.80;;;;;;5053576;28;20433;-57
2022/08/11 12:16:11;;;;;;;3.60;2.57;;;33.30;39.40;;;;;;5053656;28;20941;-57
2022/08/11 12:18:40;;;;;;;3.07;2.70;;;33.40;38.40;;;;;;5054064;28;20548;-58
2022/08/11 12:21:09;;;;;;;2.80;2.60;;;33.30;39.50;;;;;;5053744;28;20552;-57
2022/08/11 12:29:12;;;;;;;8.60;2.80;;;33.80;39.00;;;;;;5053629;28;20409;-57
2022/08/11 12:31:41;;;;;;;2.60;2.40;;;33.40;39.50;;;;;;5053616;28;20484;-56
2022/08/11 12:34:10;;;;;;;2.67;2.47;;;33.40;38.80;;;;;;5053364;28;20481;-56
2022/08/11 12:36:40;;;;;;;5.33;2.70;;;33.20;38.60;;;;;;5053547;28;20449;-56
2022/08/11 12:39:10;;;;;;;3.57;2.63;;;33.10;38.80;;;;;;5053547;28;20441;-55
2022/08/11 12:47:16;;;;;;;3.37;2.90;;;33.00;39.30;;;;;;5053249;28;20800;-55
2022/08/11 12:52:36;;;;;;;2.93;2.60;;;32.30;39.40;;;;;;5053226;28;20463;-56
2022/08/11 12:55:11;;;;;;;2.93;2.73;;;32.50;39.20;;;;;;5052628;28;20899;-56
2022/08/11 13:06:01;;;;;;;3.10;2.70;;;32.70;39.30;;;;;;5052898;28;20464;-56
2022/08/11 13:08:31;;;;;;;2.97;2.67;;;32.80;38.90;;;;;;5052847;28;20818;-56
2022/08/11 13:13:47;;;;;;;2.70;2.50;;;32.00;38.70;;;;;;5052895;28;20420;-55
2022/08/11 13:16:15;;;;;;;2.83;2.57;;;31.60;38.70;;;;;;5052883;28;20504;-55
2022/08/11 13:18:45;;;;;;;3.20;2.90;;;31.20;39.20;;;;;;5052982;28;20540;-56
2022/08/11 13:21:13;;;;;;;2.73;2.50;;;31.60;39.10;;;;;;5052700;28;20465;-56
2022/08/11 13:23:41;;;;;;;7.17;2.90;;;32.10;39.40;;;;;;5052927;28;20472;-55
2022/08/11 13:26:09;;;;;;;2.60;2.40;;;32.30;38.60;;;;;;5052645;28;20491;-55
2022/08/11 13:28:37;;;;;;;4.90;2.57;;;32.30;38.80;;;;;;5052839;28;20453;-56
2022/08/11 13:31:13;;;;;;;2.60;2.40;;;32.20;38.70;;;;;;5053265;28;20495;-56
2022/08/11 13:33:43;;;;;;;3.00;2.70;;;32.30;39.40;;;;;;5052549;28;20469;-56
2022/08/11 13:36:14;;;;;;;2.30;2.20;;;32.40;38.20;;;;;;5052905;28;20487;-56
2022/08/11 13:38:43;;;;;;;2.60;2.40;;;32.40;38.60;;;;;;5052822;28;20459;-56
2022/08/11 13:43:53;;;;;;;3.33;3.03;;;32.20;39.00;;;;;;5051400;28;20516;-56
2022/08/11 13:46:23;;;;;;;3.00;2.70;;;32.30;38.90;;;;;;5052372;28;20514;-56
2022/08/11 13:48:52;;;;;;;5.57;2.80;;;32.10;38.80;;;;;;5052424;28;20875;-56
2022/08/11 13:51:33;;;;;;;3.07;2.80;;;31.80;38.90;;;;;;5052565;28;20495;-56
2022/08/11 13:54:03;;;;;;;2.57;2.37;;;31.80;38.40;;;;;;5052427;28;20795;-56
2022/08/11 13:56:31;;;;;;;3.17;2.37;;;31.90;38.70;;;;;;5052299;28;20472;-56
2022/08/11 13:59:00;;;;;;;2.60;2.40;;;31.80;38.50;;;;;;5052495;28;20540;-56
2022/08/11 14:01:30;;;;;;;3.97;2.40;;;31.90;38.80;;;;;;5052261;28;20831;-56
2022/08/11 14:04:04;;;;;;;3.33;2.50;;;31.70;38.80;;;;;;5052548;28;20456;-56
2022/08/11 14:06:33;;;;;;;5.77;2.77;;;31.50;38.50;;;;;;5054870;28;20430;-56
2022/08/11 14:09:01;;;;;;;3.90;2.90;;;31.10;38.80;;;;;;5056205;28;20499;-57
2022/08/11 14:14:23;;;;;;;3.60;2.43;;;31.20;39.00;;;;;;5014326;28;20421;-56
2022/08/11 14:16:54;;;;;;;2.80;2.60;;;31.00;39.00;;;;;;5056391;28;20482;-56
2022/08/11 14:19:24;;;;;;;2.80;2.53;;;31.00;39.50;;;;;;5056105;28;20444;-56
2022/08/11 14:22:07;;;;;;;3.50;2.97;;;30.70;39.50;;;;;;5056049;28;20808;-56
2022/08/11 14:24:36;;;;;;;2.80;2.47;;;30.40;39.40;;;;;;5055966;28;20428;-56
2022/08/11 14:27:05;;;;;;;3.60;2.50;;;30.20;39.90;;;;;;5056060;28;20445;-56
2022/08/11 14:29:37;;;;;;;6.03;2.77;;;30.30;39.90;;;;;;5055626;28;20449;-56
2022/08/11 14:32:07;;;;;;;5.00;2.43;;;29.90;40.00;;;;;;5055935;28;20488;-56
2022/08/11 14:34:36;;;;;;;2.77;2.57;;;30.00;39.50;;;;;;5055805;28;20476;-56
2022/08/11 14:37:09;;;;;;;2.87;2.67;;;30.30;39.60;;;;;;5056099;28;20790;-57
2022/08/11 14:39:42;;;;;;;3.07;2.77;;;30.20;39.10;;;;;;5055917;28;20935;-57
2022/08/11 14:47:45;;;;;;;2.83;2.57;;;30.20;39.90;;;;;;5005201;28;20469;-56
2022/08/11 14:50:17;;;;;;;3.33;2.43;;;30.10;40.00;;;;;;5055459;28;20489;-57
2022/08/11 14:52:49;;;;;;;2.80;2.60;;;30.00;39.30;;;;;;5055337;28;20465;-57
2022/08/11 14:58:02;;;;;;;3.03;2.80;;;29.90;39.50;;;;;;5055607;28;20417;-57
2022/08/11 15:00:30;;;;;;;3.00;2.80;;;29.80;39.40;;;;;;5055510;28;20472;-56
2022/08/11 15:03:10;;;;;;;2.83;2.60;;;29.80;39.80;;;;;;5055194;28;20449;-56
2022/08/11 15:05:39;;;;;;;3.77;2.90;;;29.90;39.50;;;;;;5055224;28;20425;-56
2022/08/11 15:08:14;;;;;;;3.27;2.50;;;29.70;39.50;;;;;;5054981;28;20817;-56
2022/08/11 15:10:42;;;;;;;3.77;2.87;;;29.80;39.20;;;;;;5054821;28;20571;-56
2022/08/11 15:13:10;;;;;;;2.93;2.70;;;29.90;39.20;;;;;;5054971;28;20481;-56
2022/08/11 15:18:25;;;;;;;2.70;2.50;;;30.00;39.60;;;;;;5054923;28;20467;-57
2022/08/11 15:37:45;;;;;;;4.27;2.73;;;29.70;38.80;;;;;;5054932;28;20452;-55
2022/08/11 15:46:01;;;;;;;2.50;2.30;;;29.90;39.80;;;;;;5054576;28;20539;-55
2022/08/11 15:48:36;;;;;;;2.90;2.70;;;29.80;39.60;;;;;;5054179;28;20481;-55
2022/08/11 15:51:09;;;;;;;2.60;2.40;;;29.70;38.70;;;;;;5054192;28;20452;-55
2022/08/11 15:53:42;;;;;;;3.43;2.67;;;29.70;38.50;;;;;;5053870;28;20822;-56
2022/08/11 15:56:12;;;;;;;2.60;2.40;;;29.60;39.20;;;;;;5053801;28;20433;-56
2022/08/11 16:04:17;;;;;;;2.97;2.70;;;29.30;39.30;;;;;;5054036;28;20455;-56
2022/08/11 16:06:54;;;;;;;3.17;2.30;;;29.40;40.10;;;;;;5053664;28;20898;-56
2022/08/11 16:09:27;;;;;;;2.83;2.60;;;29.40;39.60;;;;;;5053477;28;20471;-55
2022/08/11 16:12:01;;;;;;;4.37;2.87;;;29.30;40.20;;;;;;5053413;28;20481;-55
2022/08/11 16:17:21;;;;;;;3.40;3.10;;;29.30;39.80;;;;;;5053524;28;20491;-56
2022/08/11 16:19:51;;;;;;;2.57;2.37;;;29.30;39.70;;;;;;5053656;28;20532;-56
2022/08/11 16:22:28;;;;;;;3.00;2.70;;;29.30;40.00;;;;;;5053629;28;20426;-55
2022/08/11 16:24:57;;;;;;;2.80;2.60;;;29.30;40.10;;;;;;5053330;28;20505;-55
2022/08/11 16:27:26;;;;;;;3.50;3.03;;;29.40;39.80;;;;;;5053754;28;20481;-55
2022/08/11 16:29:56;;;;;;;3.60;2.50;;;29.30;40.00;;;;;;5053016;28;20477;-55
2022/08/11 16:32:25;;;;;;;2.97;2.40;;;29.30;39.70;;;;;;5053578;28;20485;-55
2022/08/11 16:40:29;;;;;;;5.20;3.13;;;29.30;40.00;;;;;;5053499;28;20523;-56
2022/08/11 16:48:33;;;;;;;3.20;2.63;;;29.20;39.70;;;;;;5053090;28;20514;-56
2022/08/11 16:51:01;;;;;;;2.90;2.70;;;29.20;39.50;;;;;;5053400;28;20544;-56
2022/08/11 16:53:30;;;;;;;4.03;3.03;;;29.20;39.60;;;;;;5053090;28;20572;-56
2022/08/11 16:56:01;;;;;;;2.60;2.30;;;29.10;39.80;;;;;;5053148;28;20448;-56
2022/08/11 17:01:21;;;;;;;3.40;3.10;;;28.90;39.90;;;;;;5052871;28;20957;-56
2022/08/11 17:17:59;;;;;;;2.80;2.60;;;28.80;39.70;;;;;;5051920;28;20438;-56
2022/08/11 17:20:28;;;;;;;3.30;3.10;;;28.80;39.70;;;;;;5052836;28;20471;-57
2022/08/11 17:25:41;;;;;;;3.60;2.60;;;28.70;40.00;;;;;;5052927;28;20413;-56
2022/08/11 17:28:10;;;;;;;3.10;2.80;;;28.60;40.50;;;;;;5052570;28;20485;-56
2022/08/11 17:36:12;;;;;;;3.47;3.00;;;28.60;40.40;;;;;;5052649;28;20559;-56
2022/08/11 17:38:40;;;;;;;2.33;2.13;;;28.60;40.70;;;;;;5052408;28;20536;-56
2022/08/11 17:49:30;;;;;;;3.53;3.23;;;28.30;40.20;;;;;;5056634;28;20780;-56
2022/08/11 18:00:14;;;;;;;3.07;2.80;;;28.30;40.50;;;;;;5056292;28;20559;-55
2022/08/11 18:05:32;;;;;;;3.57;2.47;;;28.20;40.90;;;;;;5056350;28;20409;-55
